Time;durP1;ratioP1;P1;durP2;ratioP2;P2;SDS_P1;SDS_P2;PMS_P1;PMS_P2;Temp;Humidity;BMP_temperature;BMP_pressure;BME280_temperature;BME280_humidity;BME280_pressure;Samples;Min_cycle;Max_cycle;Signal;HPM_P1;HPM_P2
2022/07/15 00:01:21;;;;;;;12.98;3.88;;;20.10;73.90;;;;;;5053027;28;20050;-89
2022/07/15 00:03:46;;;;;;;7.00;1.67;;;20.00;73.90;;;;;;5084942;28;20024;-89
2022/07/15 00:06:12;;;;;;;4.45;1.55;;;20.00;74.20;;;;;;5048648;28;20514;-89
2022/07/15 00:08:38;;;;;;;7.13;1.83;;;19.90;74.20;;;;;;5062076;28;20429;-89
2022/07/15 00:11:03;;;;;;;5.13;1.60;;;19.90;74.60;;;;;;5042023;28;20028;-89
2022/07/15 00:13:30;;;;;;;5.18;1.58;;;19.80;74.80;;;;;;5073743;28;20495;-90
2022/07/15 00:15:56;;;;;;;7.30;1.38;;;19.80;75.00;;;;;;5051282;28;20059;-89
2022/07/15 00:18:22;;;;;;;10.13;2.40;;;19.70;75.10;;;;;;5077795;28;20055;-89
2022/07/15 00:20:47;;;;;;;6.72;1.45;;;19.70;75.40;;;;;;5057623;28;20025;-89
2022/07/15 00:23:13;;;;;;;9.13;2.13;;;19.60;75.30;;;;;;5061374;28;20020;-89
2022/07/15 00:25:39;;;;;;;4.78;1.52;;;19.60;75.60;;;;;;5060825;28;20024;-89
2022/07/15 00:28:24;;;;;;;9.85;2.25;;;19.60;75.80;;;;;;5057312;28;20048;-89
2022/07/15 00:30:50;;;;;;;6.15;1.80;;;19.50;76.00;;;;;;5058004;28;20063;-89
2022/07/15 00:33:16;;;;;;;5.25;1.77;;;19.50;76.20;;;;;;5057842;28;20050;-89
2022/07/15 00:35:41;;;;;;;7.70;1.90;;;19.50;76.40;;;;;;5074604;28;20111;-89
2022/07/15 00:38:09;;;;;;;5.45;1.40;;;19.40;76.30;;;;;;5061002;28;20108;-89
2022/07/15 00:40:42;;;;;;;6.18;1.80;;;19.40;76.50;;;;;;5053786;28;20021;-89
2022/07/15 00:43:08;;;;;;;9.18;2.00;;;19.30;76.80;;;;;;5053918;28;20475;-89
2022/07/15 00:45:33;;;;;;;6.45;1.52;;;19.30;77.10;;;;;;5058590;28;20115;-89
2022/07/15 00:47:59;;;;;;;7.47;1.73;;;19.30;77.50;;;;;;5063571;28;20028;-89
2022/07/15 00:50:27;;;;;;;7.45;1.95;;;19.30;77.90;;;;;;5039282;28;20025;-89
2022/07/15 00:53:03;;;;;;;6.95;1.50;;;19.20;78.00;;;;;;5073586;28;20019;-89
2022/07/15 00:55:37;;;;;;;7.00;1.95;;;19.20;77.80;;;;;;5073736;28;20550;-89
2022/07/15 00:58:04;;;;;;;7.85;1.90;;;19.10;78.00;;;;;;5073563;28;20028;-89
2022/07/15 01:00:31;;;;;;;9.00;2.30;;;19.10;78.00;;;;;;5073913;28;20467;-89
2022/07/15 01:02:59;;;;;;;6.65;1.80;;;19.10;78.00;;;;;;5073348;28;20021;-89
2022/07/15 01:05:25;;;;;;;6.70;1.73;;;19.00;78.10;;;;;;5074646;28;20467;-89
2022/07/15 01:07:51;;;;;;;7.05;1.65;;;19.00;78.40;;;;;;5059453;28;20025;-89
2022/07/15 01:10:19;;;;;;;7.40;1.70;;;18.90;78.80;;;;;;5061848;28;20032;-89
2022/07/15 01:12:46;;;;;;;7.70;1.70;;;18.90;79.00;;;;;;5067384;28;20436;-89
2022/07/15 01:15:12;;;;;;;6.95;1.70;;;18.90;79.10;;;;;;5047146;28;20111;-89
2022/07/15 01:17:38;;;;;;;8.50;1.85;;;18.90;79.20;;;;;;5060231;28;20081;-90
2022/07/15 01:20:05;;;;;;;8.70;1.65;;;18.80;79.90;;;;;;5090357;28;20360;-90
2022/07/15 01:22:31;;;;;;;5.90;1.75;;;18.80;79.60;;;;;;5073437;28;20024;-89
2022/07/15 01:24:56;;;;;;;7.80;1.95;;;18.70;79.90;;;;;;5068653;28;20460;-89
2022/07/15 01:27:22;;;;;;;5.20;1.50;;;18.70;80.30;;;;;;5037678;28;20138;-89
2022/07/15 01:29:47;;;;;;;5.57;1.60;;;18.80;80.60;;;;;;5060046;28;20078;-89
2022/07/15 01:32:13;;;;;;;6.13;1.55;;;18.70;81.00;;;;;;5043156;28;20035;-89
2022/07/15 01:34:39;;;;;;;6.85;1.70;;;18.70;81.30;;;;;;5059718;28;20028;-89
2022/07/15 01:37:06;;;;;;;7.90;1.70;;;18.70;81.40;;;;;;5038513;23;20060;-87
2022/07/15 01:39:32;;;;;;;8.00;2.30;;;18.70;81.80;;;;;;5048005;28;20025;-88
2022/07/15 01:41:58;;;;;;;5.28;1.70;;;18.70;81.80;;;;;;5055527;28;20023;-86
2022/07/15 01:44:24;;;;;;;10.68;2.25;;;18.60;81.90;;;;;;5060528;28;20032;-87
2022/07/15 01:46:52;;;;;;;5.30;1.60;;;18.60;81.90;;;;;;5060536;28;20021;-87
2022/07/15 01:49:29;;;;;;;5.30;1.65;;;18.60;81.90;;;;;;5057296;28;20028;-88
2022/07/15 01:51:56;;;;;;;5.85;1.83;;;18.60;82.10;;;;;;5057627;28;20017;-87
2022/07/15 01:54:27;;;;;;;8.40;1.45;;;18.60;82.20;;;;;;5068590;28;20029;-87
2022/07/15 01:56:54;;;;;;;9.38;1.58;;;18.60;82.40;;;;;;5071434;28;20063;-87
2022/07/15 01:59:25;;;;;;;4.75;1.40;;;18.50;82.80;;;;;;5070997;28;20029;-90
2022/07/15 02:01:52;;;;;;;6.35;1.75;;;18.50;82.90;;;;;;5070909;28;20029;-88
2022/07/15 02:04:19;;;;;;;8.25;2.42;;;18.50;83.10;;;;;;5071579;28;20028;-87
2022/07/15 02:06:48;;;;;;;7.63;1.80;;;18.50;83.10;;;;;;5066310;28;20021;-87
2022/07/15 02:09:17;;;;;;;7.32;1.65;;;18.50;83.40;;;;;;5042640;28;20033;-87
2022/07/15 02:11:43;;;;;;;9.38;2.08;;;18.40;83.50;;;;;;5061899;28;20021;-89
2022/07/15 02:14:09;;;;;;;7.78;1.77;;;18.40;83.70;;;;;;5066200;28;20036;-87
2022/07/15 02:16:35;;;;;;;7.38;1.80;;;18.40;83.90;;;;;;5059270;28;20591;-87
2022/07/15 02:19:03;;;;;;;10.10;1.92;;;18.40;84.10;;;;;;5056199;28;20138;-87
2022/07/15 02:21:29;;;;;;;6.03;1.40;;;18.40;84.30;;;;;;5056159;28;20013;-87
2022/07/15 02:24:00;;;;;;;9.60;2.00;;;18.40;84.40;;;;;;5056315;28;20364;-87
2022/07/15 02:26:27;;;;;;;8.38;2.00;;;18.30;84.60;;;;;;5046575;28;20044;-86
2022/07/15 02:28:53;;;;;;;6.57;1.73;;;18.30;84.80;;;;;;5070956;28;20020;-86
2022/07/15 02:31:19;;;;;;;6.40;2.08;;;18.30;85.00;;;;;;5073101;28;20021;-88
2022/07/15 02:33:45;;;;;;;5.30;1.63;;;18.30;85.20;;;;;;5054060;28;20030;-86
2022/07/15 02:36:12;;;;;;;6.95;1.40;;;18.30;85.50;;;;;;5068867;28;20060;-88
2022/07/15 02:38:38;;;;;;;7.03;1.88;;;18.20;85.60;;;;;;5037196;28;20036;-87
2022/07/15 02:41:04;;;;;;;6.15;1.85;;;18.20;85.80;;;;;;5054417;28;20389;-88
2022/07/15 02:43:32;;;;;;;5.13;1.55;;;18.20;86.00;;;;;;5039343;28;20025;-87
2022/07/15 02:45:58;;;;;;;7.90;2.35;;;18.20;86.20;;;;;;5056455;28;20013;-87
2022/07/15 02:48:24;;;;;;;7.97;1.90;;;18.20;86.40;;;;;;5055983;28;20029;-89
2022/07/15 02:50:49;;;;;;;6.22;1.92;;;18.10;86.60;;;;;;5063663;28;20097;-88
2022/07/15 02:53:15;;;;;;;6.00;1.70;;;18.10;87.00;;;;;;5058004;28;20524;-86
2022/07/15 02:55:41;;;;;;;7.22;1.52;;;18.10;87.20;;;;;;5057309;28;20074;-86
2022/07/15 02:58:07;;;;;;;5.68;1.60;;;18.10;87.30;;;;;;5035002;28;20045;-86
2022/07/15 03:00:36;;;;;;;6.47;1.80;;;18.10;87.50;;;;;;5038481;28;20018;-87
2022/07/15 03:03:01;;;;;;;8.48;1.90;;;18.00;87.50;;;;;;5035891;28;20024;-86
2022/07/15 03:05:27;;;;;;;5.53;1.52;;;18.00;87.60;;;;;;5044624;28;20467;-87
2022/07/15 03:07:53;;;;;;;6.50;1.70;;;18.00;87.70;;;;;;5055284;28;20021;-86
2022/07/15 03:10:19;;;;;;;5.78;1.42;;;18.00;87.90;;;;;;5055272;28;20466;-87
2022/07/15 03:12:47;;;;;;;5.68;1.45;;;17.90;88.20;;;;;;5056110;28;20482;-86
2022/07/15 03:15:12;;;;;;;8.05;1.80;;;17.90;88.50;;;;;;5055646;28;20597;-86
2022/07/15 03:17:40;;;;;;;5.95;1.60;;;17.90;88.70;;;;;;5053896;28;20043;-86
2022/07/15 03:20:07;;;;;;;6.70;1.80;;;17.90;88.90;;;;;;5051882;28;20049;-86
2022/07/15 03:22:33;;;;;;;7.35;1.67;;;17.90;89.10;;;;;;5032853;28;20013;-86
2022/07/15 03:24:59;;;;;;;4.80;1.50;;;17.90;89.20;;;;;;5035297;28;20072;-86
2022/07/15 03:27:25;;;;;;;6.38;1.77;;;17.80;89.40;;;;;;5047360;28;20048;-85
2022/07/15 03:29:51;;;;;;;7.65;2.10;;;17.80;89.50;;;;;;5056282;28;20096;-86
2022/07/15 03:32:19;;;;;;;10.27;2.10;;;17.80;89.70;;;;;;5038451;28;20033;-86
2022/07/15 03:34:45;;;;;;;10.23;2.13;;;17.70;89.80;;;;;;5054705;28;20066;-85
2022/07/15 03:37:11;;;;;;;9.77;1.80;;;17.70;90.00;;;;;;5054293;28;20483;-85
2022/07/15 03:39:37;;;;;;;8.52;1.90;;;17.60;90.00;;;;;;5054751;28;20175;-86
2022/07/15 03:42:03;;;;;;;8.73;2.08;;;17.60;90.10;;;;;;5034755;28;20033;-86
2022/07/15 03:44:29;;;;;;;7.55;2.00;;;17.50;90.10;;;;;;5046537;28;20028;-86
2022/07/15 03:46:56;;;;;;;7.65;2.25;;;17.50;90.30;;;;;;5054810;28;20425;-86
2022/07/15 03:49:24;;;;;;;8.13;1.90;;;17.50;90.40;;;;;;5054555;28;20033;-86
2022/07/15 03:51:50;;;;;;;7.43;2.13;;;17.40;90.50;;;;;;5023586;28;20336;-86
2022/07/15 03:54:16;;;;;;;8.02;2.22;;;17.40;90.70;;;;;;5054233;28;20470;-86
2022/07/15 03:56:42;;;;;;;11.10;1.90;;;17.40;90.80;;;;;;5054071;28;20029;-86
2022/07/15 03:59:07;;;;;;;7.82;1.95;;;17.40;91.00;;;;;;5037539;28;20037;-87
2022/07/15 04:01:33;;;;;;;8.25;2.60;;;17.30;91.20;;;;;;5054343;28;20115;-87
2022/07/15 04:03:59;;;;;;;11.35;2.05;;;17.30;91.30;;;;;;5054403;28;20044;-86
2022/07/15 04:06:25;;;;;;;7.00;1.90;;;17.30;91.50;;;;;;5054559;28;20037;-86
2022/07/15 04:08:51;;;;;;;10.32;2.30;;;17.30;91.60;;;;;;5053410;28;20029;-86
2022/07/15 04:11:18;;;;;;;7.78;1.75;;;17.30;91.70;;;;;;5055750;28;20519;-86
2022/07/15 04:13:47;;;;;;;6.10;2.10;;;17.30;91.70;;;;;;5055384;28;20104;-86
2022/07/15 04:16:13;;;;;;;10.30;2.03;;;17.30;91.80;;;;;;5040562;28;20059;-85
2022/07/15 04:18:39;;;;;;;5.55;1.60;;;17.20;91.80;;;;;;5024767;28;20057;-86
2022/07/15 04:21:05;;;;;;;5.30;1.60;;;17.20;91.90;;;;;;5052025;28;20032;-85
2022/07/15 04:23:31;;;;;;;7.40;1.80;;;17.20;92.10;;;;;;5054482;28;20028;-85
2022/07/15 04:25:56;;;;;;;8.15;1.83;;;17.20;92.20;;;;;;5020990;28;20386;-86
2022/07/15 04:28:23;;;;;;;11.00;2.17;;;17.20;92.40;;;;;;5053705;28;20032;-85
2022/07/15 04:30:51;;;;;;;6.47;2.33;;;17.20;92.50;;;;;;5054869;28;20079;-85
2022/07/15 04:33:17;;;;;;;8.43;1.85;;;17.10;92.60;;;;;;5053773;28;20100;-87
2022/07/15 04:35:43;;;;;;;5.32;1.90;;;17.10;92.60;;;;;;5054276;28;20041;-86
2022/07/15 04:38:09;;;;;;;6.80;1.60;;;17.10;92.70;;;;;;5053680;28;20031;-85
2022/07/15 04:40:41;;;;;;;6.45;1.98;;;17.10;92.80;;;;;;5053785;28;20075;-85
2022/07/15 04:43:07;;;;;;;7.40;1.65;;;17.00;92.90;;;;;;5052572;28;20426;-86
2022/07/15 04:45:33;;;;;;;6.55;1.70;;;17.00;93.00;;;;;;5053353;28;20116;-86
2022/07/15 04:47:59;;;;;;;9.10;1.73;;;17.00;93.10;;;;;;5036351;28;20079;-86
2022/07/15 04:53:09;;;;;;;8.13;1.92;;;17.00;93.20;;;;;;5054650;28;20040;-86
2022/07/15 04:55:35;;;;;;;8.80;1.95;;;17.00;93.30;;;;;;5053232;28;20025;-86
2022/07/15 04:58:02;;;;;;;6.75;1.98;;;17.00;93.50;;;;;;5053255;28;20025;-85
2022/07/15 05:00:28;;;;;;;3.83;1.50;;;17.00;93.90;;;;;;5053334;28;20035;-86
2022/07/15 05:02:53;;;;;;;9.05;2.10;;;17.00;94.10;;;;;;5053284;28;20454;-84
2022/07/15 05:05:20;;;;;;;5.85;2.08;;;17.00;94.10;;;;;;5045503;28;20075;-85
2022/07/15 05:07:46;;;;;;;8.07;1.80;;;16.90;94.00;;;;;;5033722;28;20052;-86
2022/07/15 05:10:13;;;;;;;8.68;2.05;;;16.90;94.10;;;;;;5053017;28;20466;-86
2022/07/15 05:12:39;;;;;;;12.90;2.03;;;16.90;94.20;;;;;;5053012;28;20033;-86
2022/07/15 05:15:05;;;;;;;5.72;1.70;;;16.90;94.30;;;;;;5053051;28;20025;-86
2022/07/15 05:17:34;;;;;;;10.00;2.97;;;16.90;94.50;;;;;;5034748;28;20107;-86
2022/07/15 05:20:00;;;;;;;6.03;2.13;;;16.90;94.60;;;;;;5036328;28;20060;-86
2022/07/15 05:22:26;;;;;;;7.47;1.85;;;16.90;94.80;;;;;;5053605;28;20029;-86
2022/07/15 05:24:52;;;;;;;8.52;2.33;;;16.80;94.80;;;;;;5049720;28;20010;-75
2022/07/15 05:27:18;;;;;;;5.43;1.80;;;16.80;94.90;;;;;;5046833;28;20018;-75
2022/07/15 05:29:44;;;;;;;8.27;1.80;;;16.80;95.00;;;;;;5045130;28;20463;-75
2022/07/15 05:32:10;;;;;;;9.43;2.33;;;16.80;95.20;;;;;;5040833;28;20099;-84
2022/07/15 05:34:36;;;;;;;5.85;1.70;;;16.80;95.40;;;;;;5051626;28;20040;-85
2022/07/15 05:37:02;;;;;;;10.60;2.13;;;16.80;95.50;;;;;;5035770;28;20056;-85
2022/07/15 05:39:27;;;;;;;5.75;1.30;;;16.90;95.60;;;;;;5052819;28;20041;-85
2022/07/15 05:41:54;;;;;;;5.97;1.63;;;16.90;95.70;;;;;;5027706;28;20110;-84
2022/07/15 05:44:19;;;;;;;10.13;1.80;;;16.90;95.80;;;;;;5052629;28;20491;-85
2022/07/15 05:46:45;;;;;;;6.18;1.30;;;16.90;95.80;;;;;;5026132;28;20143;-86
2022/07/15 05:49:11;;;;;;;6.28;1.65;;;16.90;95.80;;;;;;5051884;28;20025;-86
2022/07/15 05:51:38;;;;;;;7.65;1.92;;;16.90;95.90;;;;;;5051045;28;20466;-86
2022/07/15 05:54:06;;;;;;;7.00;1.80;;;17.00;96.00;;;;;;5037435;28;20633;-85
2022/07/15 05:56:32;;;;;;;7.05;1.85;;;17.00;96.10;;;;;;5055017;28;20036;-86
2022/07/15 05:59:00;;;;;;;8.23;1.85;;;17.00;96.20;;;;;;5054040;28;20033;-86
2022/07/15 06:01:26;;;;;;;5.60;1.40;;;17.10;96.40;;;;;;5055799;28;20024;-86
2022/07/15 06:03:52;;;;;;;13.55;1.98;;;17.10;96.40;;;;;;5056761;28;20351;-85
2022/07/15 06:06:21;;;;;;;6.07;1.75;;;17.20;96.50;;;;;;5040351;28;20060;-85
2022/07/15 06:08:47;;;;;;;4.57;1.50;;;17.20;96.50;;;;;;5057822;28;20035;-87
2022/07/15 06:11:13;;;;;;;6.25;1.75;;;17.30;96.50;;;;;;5058119;28;20084;-86
2022/07/15 06:13:39;;;;;;;6.97;1.85;;;17.30;96.50;;;;;;5044720;28;20072;-86
2022/07/15 06:16:06;;;;;;;6.10;1.50;;;17.40;96.50;;;;;;5065269;28;20021;-86
2022/07/15 06:18:32;;;;;;;4.30;1.20;;;17.40;96.60;;;;;;5064577;28;20475;-86
2022/07/15 06:20:57;;;;;;;8.30;1.30;;;17.50;96.70;;;;;;5064885;28;20064;-86
2022/07/15 06:23:23;;;;;;;5.65;1.33;;;17.50;96.70;;;;;;5072708;28;20017;-87
2022/07/15 06:25:49;;;;;;;6.47;1.90;;;17.50;96.60;;;;;;5050384;28;20078;-88
2022/07/15 06:28:15;;;;;;;5.63;1.50;;;17.60;96.70;;;;;;5064907;28;20059;-86
2022/07/15 06:30:41;;;;;;;5.63;1.90;;;17.70;96.70;;;;;;5065338;28;20045;-86
2022/07/15 06:33:09;;;;;;;7.70;2.08;;;17.70;96.60;;;;;;5064680;28;20052;-86
2022/07/15 06:35:36;;;;;;;6.50;1.27;;;17.70;96.60;;;;;;5074011;28;20070;-86
2022/07/15 06:38:04;;;;;;;5.47;1.50;;;17.80;96.70;;;;;;5070140;28;20045;-88
2022/07/15 06:40:30;;;;;;;4.95;1.50;;;17.80;96.70;;;;;;5072006;28;20021;-85
2022/07/15 06:42:58;;;;;;;7.88;1.67;;;17.90;96.70;;;;;;5045900;28;20006;-88
2022/07/15 06:45:23;;;;;;;4.20;1.25;;;17.90;96.70;;;;;;5055529;28;20021;-86
2022/07/15 06:47:55;;;;;;;8.32;1.60;;;18.00;96.70;;;;;;5067070;28;20116;-87
2022/07/15 06:50:24;;;;;;;7.93;1.27;;;18.00;96.60;;;;;;5061183;28;20028;-86
2022/07/15 06:52:52;;;;;;;11.82;1.80;;;18.10;96.40;;;;;;5052654;28;20022;-87
2022/07/15 06:55:27;;;;;;;2.60;0.95;;;18.10;96.20;;;;;;5042185;28;20033;-86
2022/07/15 06:57:55;;;;;;;5.03;1.08;;;18.20;95.80;;;;;;5058459;28;20036;-87
2022/07/15 07:00:29;;;;;;;7.82;1.38;;;18.20;95.70;;;;;;5050476;28;20036;-87
2022/07/15 07:02:55;;;;;;;4.95;1.73;;;18.30;95.70;;;;;;5049880;28;20020;-86
2022/07/15 07:05:29;;;;;;;4.40;1.10;;;18.30;95.30;;;;;;5046561;28;20026;-87
2022/07/15 07:08:00;;;;;;;5.10;1.13;;;18.40;95.40;;;;;;5051739;28;20033;-86
2022/07/15 07:10:26;;;;;;;5.57;1.52;;;18.40;95.30;;;;;;5038829;28;20033;-85
2022/07/15 07:12:55;;;;;;;3.42;1.05;;;18.50;95.20;;;;;;5046993;28;20017;-85
2022/07/15 07:15:24;;;;;;;3.08;0.90;;;18.60;95.20;;;;;;5049533;28;20048;-86
2022/07/15 07:17:56;;;;;;;6.50;1.42;;;18.60;95.10;;;;;;5037994;28;20044;-86
2022/07/15 07:20:21;;;;;;;7.28;1.60;;;18.70;94.70;;;;;;5044627;28;20025;-86
2022/07/15 07:22:49;;;;;;;5.05;1.60;;;18.70;94.60;;;;;;5050791;28;20480;-85
2022/07/15 07:25:18;;;;;;;8.13;1.38;;;18.80;94.20;;;;;;5038301;28;20041;-85
2022/07/15 07:27:43;;;;;;;5.50;1.63;;;18.90;94.00;;;;;;5029761;28;20494;-86
2022/07/15 07:30:09;;;;;;;6.32;1.38;;;19.00;93.80;;;;;;5044549;28;20021;-85
2022/07/15 07:32:35;;;;;;;7.53;1.30;;;19.00;93.70;;;;;;5036971;28;20042;-86
2022/07/15 07:35:08;;;;;;;5.57;1.70;;;19.10;93.70;;;;;;5045395;28;20439;-87
2022/07/15 07:37:38;;;;;;;6.60;1.67;;;19.20;93.50;;;;;;5021310;28;20052;-87
2022/07/15 07:40:05;;;;;;;4.75;1.40;;;19.30;93.40;;;;;;5037790;28;20041;-86
2022/07/15 07:42:31;;;;;;;3.78;1.17;;;19.30;93.10;;;;;;5038305;28;20032;-88
2022/07/15 07:44:59;;;;;;;5.05;1.33;;;19.40;93.00;;;;;;5053489;28;20025;-88
2022/07/15 07:47:33;;;;;;;4.57;1.00;;;19.50;92.80;;;;;;5043203;28;20375;-84
2022/07/15 07:49:58;;;;;;;4.63;0.95;;;19.60;92.50;;;;;;5047159;28;20501;-84
2022/07/15 07:52:24;;;;;;;8.38;1.77;;;19.70;92.20;;;;;;5042765;28;20071;-88
2022/07/15 07:54:50;;;;;;;3.30;1.10;;;19.70;91.90;;;;;;5042993;28;20147;-82
2022/07/15 07:57:17;;;;;;;7.13;1.42;;;19.80;91.60;;;;;;5053631;28;20025;-81
2022/07/15 07:59:42;;;;;;;4.53;1.83;;;19.80;91.30;;;;;;5036782;28;20478;-82
2022/07/15 08:02:08;;;;;;;8.32;1.58;;;19.90;91.10;;;;;;5048961;28;20044;-82
2022/07/15 08:04:34;;;;;;;4.60;1.27;;;20.00;91.00;;;;;;5027249;28;20025;-81
2022/07/15 08:06:59;;;;;;;6.97;1.33;;;20.10;90.80;;;;;;5019651;28;20055;-85
2022/07/15 08:09:26;;;;;;;5.00;1.10;;;20.10;90.60;;;;;;5033237;28;20040;-82
2022/07/15 08:11:52;;;;;;;7.95;0.98;;;20.20;90.60;;;;;;5019450;28;20057;-85
2022/07/15 08:14:18;;;;;;;6.47;1.30;;;20.30;90.50;;;;;;5035822;28;20056;-82
2022/07/15 08:16:45;;;;;;;7.35;1.40;;;20.30;90.20;;;;;;5032837;28;20116;-83
2022/07/15 08:19:15;;;;;;;6.80;1.30;;;20.40;90.00;;;;;;5030868;28;20099;-83
2022/07/15 08:21:41;;;;;;;5.00;1.20;;;20.50;89.80;;;;;;5027983;28;20025;-82
2022/07/15 08:24:07;;;;;;;5.75;1.40;;;20.60;89.00;;;;;;5051770;28;20583;-85
2022/07/15 08:26:33;;;;;;;4.20;1.17;;;20.60;88.50;;;;;;5033372;28;20025;-84
2022/07/15 08:28:58;;;;;;;5.38;1.10;;;20.70;88.20;;;;;;5032803;28;20036;-85
2022/07/15 08:31:24;;;;;;;4.95;1.10;;;20.70;87.10;;;;;;5035029;28;20029;-86
2022/07/15 08:33:50;;;;;;;3.80;1.00;;;20.80;85.90;;;;;;5032466;28;20032;-85
2022/07/15 08:36:15;;;;;;;3.35;1.08;;;20.80;85.10;;;;;;5023241;28;20029;-84
2022/07/15 08:38:41;;;;;;;6.93;2.22;;;20.90;85.20;;;;;;5042063;28;20021;-84
2022/07/15 08:41:07;;;;;;;3.10;1.20;;;20.90;85.00;;;;;;5034760;28;20055;-84
2022/07/15 08:43:33;;;;;;;3.83;1.10;;;21.00;85.00;;;;;;5031901;28;20030;-83
2022/07/15 08:45:59;;;;;;;5.30;1.13;;;21.00;85.30;;;;;;5050960;28;20029;-86
2022/07/15 08:48:28;;;;;;;4.05;1.23;;;21.20;85.10;;;;;;5048818;28;20095;-85
2022/07/15 08:50:55;;;;;;;8.77;1.85;;;21.20;84.80;;;;;;5053214;28;20029;-85
2022/07/15 08:53:21;;;;;;;3.30;1.00;;;21.30;84.70;;;;;;5054059;28;20021;-86
2022/07/15 08:55:47;;;;;;;5.78;1.30;;;21.40;84.40;;;;;;5053216;28;20060;-85
2022/07/15 08:58:13;;;;;;;5.25;1.20;;;21.40;83.00;;;;;;5053115;28;20064;-86
2022/07/15 09:00:40;;;;;;;4.03;1.30;;;21.50;81.40;;;;;;5053114;28;20057;-84
2022/07/15 09:03:06;;;;;;;7.10;1.33;;;21.50;79.60;;;;;;5032265;28;20527;-87
2022/07/15 09:05:34;;;;;;;4.60;0.95;;;21.50;78.90;;;;;;5053532;28;20016;-85
2022/07/15 09:08:15;;;;;;;4.95;1.10;;;21.50;78.60;;;;;;5052831;28;20025;-81
2022/07/15 09:10:44;;;;;;;6.43;1.25;;;21.50;78.40;;;;;;5055806;28;20017;-80
2022/07/15 09:13:11;;;;;;;3.85;1.15;;;21.50;77.90;;;;;;5051747;28;20075;-80
2022/07/15 09:15:39;;;;;;;6.65;1.25;;;21.60;78.40;;;;;;5035324;28;20048;-80
2022/07/15 09:18:14;;;;;;;4.90;1.10;;;21.60;78.70;;;;;;5052089;28;20033;-80
2022/07/15 09:20:42;;;;;;;3.35;1.08;;;21.60;78.70;;;;;;5052005;28;20382;-79
2022/07/15 09:23:09;;;;;;;5.22;1.50;;;21.70;77.70;;;;;;5051905;28;20029;-81
2022/07/15 09:25:37;;;;;;;6.00;1.40;;;21.70;78.00;;;;;;5035636;28;20028;-79
2022/07/15 09:28:05;;;;;;;5.47;1.10;;;21.70;77.30;;;;;;5051983;28;20080;-80
2022/07/15 09:33:36;;;;;;;6.10;1.08;;;21.80;77.30;;;;;;5053036;28;20040;-80
2022/07/15 09:36:11;;;;;;;4.63;1.10;;;21.90;76.60;;;;;;5057250;28;20025;-80
2022/07/15 09:38:42;;;;;;;4.20;1.25;;;21.90;75.60;;;;;;5056080;28;20029;-80
2022/07/15 09:41:29;;;;;;;3.03;0.98;;;22.00;75.20;;;;;;5056080;28;20032;-80
2022/07/15 09:43:58;;;;;;;6.13;1.40;;;22.00;75.70;;;;;;5056472;28;20048;-80
2022/07/15 09:46:27;;;;;;;4.63;1.00;;;22.10;75.90;;;;;;5057077;28;20024;-79
2022/07/15 09:48:53;;;;;;;6.05;1.35;;;22.10;76.50;;;;;;5056061;28;20029;-79
2022/07/15 09:51:20;;;;;;;5.53;1.20;;;22.20;77.10;;;;;;5056995;28;20178;-79
2022/07/15 09:53:47;;;;;;;5.60;1.20;;;22.20;76.30;;;;;;5057158;28;20029;-79
2022/07/15 09:56:16;;;;;;;4.57;1.00;;;22.20;75.20;;;;;;5032990;28;20025;-79
2022/07/15 09:58:43;;;;;;;4.00;1.17;;;22.30;74.80;;;;;;5038768;28;20454;-79
2022/07/15 10:01:10;;;;;;;3.40;0.90;;;22.30;75.00;;;;;;5039470;28;20038;-80
2022/07/15 10:03:37;;;;;;;2.72;0.65;;;22.30;74.30;;;;;;5033545;28;20124;-80
2022/07/15 10:06:04;;;;;;;6.07;1.05;;;22.30;74.20;;;;;;5036935;28;20036;-80
2022/07/15 10:08:31;;;;;;;6.97;1.10;;;22.40;74.20;;;;;;5037511;28;20214;-81
2022/07/15 10:10:58;;;;;;;3.35;0.93;;;22.40;74.40;;;;;;5038768;28;20024;-80
2022/07/15 10:13:57;;;;;;;5.13;0.95;;;22.40;74.50;;;;;;5037328;28;20025;-80
2022/07/15 10:16:29;;;;;;;4.68;0.88;;;22.50;74.80;;;;;;5047942;28;20025;-80
2022/07/15 10:19:25;;;;;;;3.13;1.00;;;22.50;74.90;;;;;;5048434;28;20032;-79
2022/07/15 10:22:19;;;;;;;2.40;0.82;;;22.60;75.20;;;;;;5040773;28;20028;-78
2022/07/15 10:25:07;;;;;;;2.22;0.90;;;22.70;74.50;;;;;;5034946;28;20532;-79
2022/07/15 10:28:08;;;;;;;3.63;1.30;;;22.70;74.30;;;;;;5035390;28;20021;-79
2022/07/15 10:30:34;;;;;;;3.67;1.20;;;22.80;74.00;;;;;;5012237;28;20033;-79
2022/07/15 10:33:03;;;;;;;6.38;1.20;;;22.90;73.20;;;;;;5034447;28;20033;-79
2022/07/15 10:35:41;;;;;;;4.75;1.08;;;22.90;72.80;;;;;;5036008;28;20108;-81
2022/07/15 10:38:25;;;;;;;4.30;0.95;;;22.90;72.20;;;;;;5048781;28;20353;-80
2022/07/15 10:41:01;;;;;;;6.88;1.10;;;22.90;70.80;;;;;;5032673;28;20041;-81
2022/07/15 10:43:49;;;;;;;3.17;0.85;;;22.90;70.50;;;;;;5033597;28;20596;-81
2022/07/15 10:46:20;;;;;;;5.68;0.85;;;22.90;69.50;;;;;;5029289;28;20499;-81
2022/07/15 10:48:48;;;;;;;2.13;0.50;;;22.90;69.60;;;;;;5040055;28;20419;-82
2022/07/15 10:51:36;;;;;;;3.33;0.73;;;22.90;70.10;;;;;;5055789;28;20017;-81
2022/07/15 10:54:08;;;;;;;2.65;0.85;;;23.00;71.10;;;;;;5049194;28;20025;-81
2022/07/15 10:56:36;;;;;;;2.35;0.93;;;23.00;70.80;;;;;;5041545;28;20026;-81
2022/07/15 10:59:15;;;;;;;2.95;0.80;;;23.10;69.80;;;;;;5034005;28;20042;-80
2022/07/15 11:01:44;;;;;;;2.97;0.90;;;23.20;69.30;;;;;;5044807;28;20021;-81
2022/07/15 11:04:27;;;;;;;3.47;1.10;;;23.20;68.50;;;;;;5055723;28;20032;-80
2022/07/15 11:07:09;;;;;;;2.97;1.02;;;23.20;69.00;;;;;;5050751;28;20017;-81
2022/07/15 11:10:12;;;;;;;2.63;0.93;;;23.30;68.30;;;;;;5048646;28;20039;-81
2022/07/15 11:12:50;;;;;;;6.90;1.00;;;23.30;68.40;;;;;;5050907;28;20028;-80
2022/07/15 11:15:16;;;;;;;3.08;1.10;;;23.30;68.50;;;;;;5054095;28;20031;-80
2022/07/15 11:17:51;;;;;;;4.07;1.58;;;23.30;68.00;;;;;;5054475;28;20051;-80
2022/07/15 11:20:23;;;;;;;2.72;0.88;;;23.30;68.00;;;;;;5037723;28;20447;-79
2022/07/15 11:22:51;;;;;;;4.43;2.00;;;23.40;67.70;;;;;;5054029;28;20017;-80
2022/07/15 11:25:27;;;;;;;5.28;0.95;;;23.50;68.00;;;;;;5054261;28;20382;-81
2022/07/15 11:28:13;;;;;;;5.05;1.02;;;23.40;67.60;;;;;;5035845;28;20037;-81
2022/07/15 11:30:47;;;;;;;2.67;1.13;;;23.50;66.80;;;;;;5053956;28;20117;-80
2022/07/15 11:33:17;;;;;;;5.80;1.80;;;23.50;67.00;;;;;;5053931;28;20489;-79
2022/07/15 11:35:53;;;;;;;4.72;1.50;;;23.50;67.20;;;;;;5055036;28;20021;-79
2022/07/15 11:38:22;;;;;;;3.28;1.02;;;23.50;67.30;;;;;;5054972;28;20056;-80
2022/07/15 11:46:22;;;;;;;1.95;1.00;;;23.50;66.30;;;;;;5054083;28;20043;-83
2022/07/15 11:48:48;;;;;;;4.65;1.65;;;23.60;66.60;;;;;;5053977;28;20021;-83
2022/07/15 11:51:14;;;;;;;3.95;1.83;;;23.60;66.20;;;;;;5055379;28;20112;-82
2022/07/15 11:53:43;;;;;;;5.22;1.95;;;23.60;65.90;;;;;;5053509;28;20033;-82
2022/07/15 11:56:11;;;;;;;4.75;1.17;;;23.60;66.00;;;;;;5054177;28;20029;-82
2022/07/15 11:58:39;;;;;;;5.15;0.98;;;23.60;67.60;;;;;;5052038;28;20033;-82
2022/07/15 12:01:11;;;;;;;4.78;1.40;;;23.60;66.70;;;;;;5053924;28;20021;-82
2022/07/15 12:03:43;;;;;;;4.00;1.75;;;23.60;66.20;;;;;;5054638;28;20533;-80
2022/07/15 12:06:11;;;;;;;5.57;3.33;;;23.60;66.50;;;;;;5057289;28;20163;-82
2022/07/15 12:08:43;;;;;;;4.20;2.15;;;23.70;66.70;;;;;;5054399;28;20028;-79
2022/07/15 12:11:18;;;;;;;5.85;1.48;;;23.70;66.60;;;;;;5053173;28;20024;-78
2022/07/15 12:13:47;;;;;;;2.95;1.63;;;23.70;65.60;;;;;;5052729;28;20169;-80
2022/07/15 12:16:13;;;;;;;8.18;1.25;;;23.70;64.80;;;;;;5053986;28;20485;-80
2022/07/15 12:18:40;;;;;;;3.45;1.02;;;23.70;65.30;;;;;;5035639;28;20029;-79
2022/07/15 12:21:06;;;;;;;5.57;1.00;;;23.70;65.40;;;;;;5054260;28;20029;-78
2022/07/15 12:23:32;;;;;;;4.07;1.10;;;23.70;64.80;;;;;;5052425;28;20048;-79
2022/07/15 12:26:06;;;;;;;4.78;1.27;;;23.80;64.70;;;;;;5036088;28;20069;-79
2022/07/15 12:28:33;;;;;;;3.28;1.10;;;23.80;65.90;;;;;;5052623;28;20112;-78
2022/07/15 12:30:59;;;;;;;3.25;1.10;;;23.80;67.10;;;;;;5053686;28;20100;-78
2022/07/15 12:33:25;;;;;;;3.33;1.40;;;23.80;67.50;;;;;;5052607;28;20025;-78
2022/07/15 12:36:21;;;;;;;3.83;1.15;;;23.80;67.60;;;;;;5052452;28;20123;-78
2022/07/15 12:39:02;;;;;;;2.08;1.08;;;23.80;67.50;;;;;;5042320;28;20037;-79
2022/07/15 12:41:27;;;;;;;;;;;23.80;66.50;;;;;;5052862;28;20028;-80
2022/07/15 12:43:58;;;;;;;4.22;1.05;;;23.80;66.20;;;;;;5052667;28;19911;-79
2022/07/15 12:46:46;;;;;;;3.90;1.00;;;23.80;65.80;;;;;;5052087;28;20528;-80
2022/07/15 12:49:11;;;;;;;1.77;0.85;;;23.80;64.90;;;;;;5048724;28;20021;-79
2022/07/15 12:51:38;;;;;;;4.13;1.10;;;23.80;65.60;;;;;;5028371;28;20055;-79
2022/07/15 12:54:05;;;;;;;5.97;2.22;;;23.80;65.70;;;;;;5035851;28;20021;-79
2022/07/15 12:56:49;;;;;;;13.00;7.18;;;23.80;65.60;;;;;;5037632;28;20025;-80
2022/07/15 12:59:15;;;;;;;5.80;2.83;;;23.80;65.40;;;;;;5032390;28;20033;-78
2022/07/15 13:01:44;;;;;;;14.30;8.23;;;23.80;64.70;;;;;;5030325;28;20036;-80
2022/07/15 13:04:10;;;;;;;29.42;18.38;;;23.90;64.00;;;;;;5045076;28;20026;-79